Time;durP1;ratioP1;P1;durP2;ratioP2;P2;SDS_P1;SDS_P2;PMS_P1;PMS_P2;Temp;Humidity;BMP_temperature;BMP_pressure;BME280_temperature;BME280_humidity;BME280_pressure;Samples;Min_cycle;Max_cycle;Signal;HPM_P1;HPM_P2
2022/06/21 19:47:03;;;;;;;17.08;9.88;;;;;;;;;;5102877;27;20422;-35
2022/06/21 19:49:47;;;;;;;14.68;8.80;;;;;;;;;;5106548;28;20519;-36
2022/06/21 19:52:38;;;;;;;15.70;9.35;;;;;;;;;;5095891;28;20410;-33
2022/06/21 19:55:41;;;;;;;15.07;8.05;;;;;;;;;;5103844;28;20046;-34
2022/06/21 19:58:25;;;;;;;15.18;8.32;;;;;;;;;;5105728;28;20061;-34
2022/06/21 20:01:29;;;;;;;16.42;10.15;;;;;;;;;;5105228;28;20084;-34
2022/06/21 20:04:31;;;;;;;12.52;7.80;;;;;;;;;;5105877;28;20043;-35
2022/06/21 20:07:26;;;;;;;15.13;9.02;;;;;;;;;;5103799;28;20060;-35
2022/06/21 20:10:20;;;;;;;20.98;9.45;;;;;;;;;;5104711;28;20047;-31
2022/06/21 20:13:09;;;;;;;13.35;9.18;;;;;;;;;;5104375;28;20101;-33
2022/06/21 20:16:05;;;;;;;12.48;9.23;;;;;;;;;;5104869;28;20046;-33
2022/06/21 20:18:59;;;;;;;12.98;8.57;;;;;;;;;;5104742;28;20050;-34
2022/06/21 20:21:56;;;;;;;14.23;8.65;;;;;;;;;;5105740;28;20046;-32
2022/06/21 20:24:54;;;;;;;12.55;7.93;;;;;;;;;;5105563;28;20039;-32
2022/06/21 20:27:38;;;;;;;9.95;7.47;;;;;;;;;;5104333;28;20047;-33
2022/06/21 20:30:35;;;;;;;15.23;8.57;;;;;;;;;;5104856;28;20046;-33
2022/06/21 20:33:26;;;;;;;15.82;7.45;;;;;;;;;;5085256;28;20042;-32
2022/06/21 20:36:11;;;;;;;14.13;7.90;;;;;;;;;;5083160;28;20043;-32
2022/06/21 20:38:58;;;;;;;15.65;8.02;;;;;;;;;;5085099;28;20257;-32
2022/06/21 20:41:56;;;;;;;15.82;8.20;;;;;;;;;;5085099;28;20043;-32
2022/06/21 20:44:41;;;;;;;10.93;7.75;;;;;;;;;;5083976;28;20042;-32
2022/06/21 20:47:44;;;;;;;12.68;7.97;;;;;;;;;;5105115;28;20616;-32
2022/06/21 20:50:30;;;;;;;12.40;6.85;;;;;;;;;;5104846;28;20490;-32
2022/06/21 20:53:18;;;;;;;16.13;7.90;;;;;;;;;;5103305;28;20260;-32
2022/06/21 20:56:06;;;;;;;16.42;8.23;;;;;;;;;;5104066;28;20051;-32
2022/06/21 20:58:54;;;;;;;12.20;7.60;;;;;;;;;;5091591;28;20047;-32
2022/06/21 21:01:41;;;;;;;15.32;9.10;;;;;;;;;;5090268;28;20411;-34
2022/06/21 21:04:31;;;;;;;12.82;6.57;;;;;;;;;;5091592;28;20430;-32
2022/06/21 21:07:17;;;;;;;18.38;7.25;;;;;;;;;;5090660;28;20047;-32
2022/06/21 21:10:09;;;;;;;10.85;7.25;;;;;;;;;;5091564;28;20047;-32
2022/06/21 21:12:57;;;;;;;12.73;7.70;;;;;;;;;;5091472;28;20427;-32
2022/06/21 21:15:44;;;;;;;12.65;7.88;;;;;;;;;;5089349;28;20058;-32
2022/06/21 21:18:32;;;;;;;14.80;8.05;;;;;;;;;;5091428;28;20050;-32
2022/06/21 21:21:19;;;;;;;13.05;7.53;;;;;;;;;;5091181;28;20035;-32
2022/06/21 21:24:05;;;;;;;10.43;7.18;;;;;;;;;;5090613;28;20097;-34
2022/06/21 21:26:53;;;;;;;13.05;8.18;;;;;;;;;;5090848;28;20409;-32
2022/06/21 21:29:37;;;;;;;11.52;7.63;;;;;;;;;;5089072;28;20051;-33
2022/06/21 21:32:23;;;;;;;13.85;7.70;;;;;;;;;;5090896;28;20125;-33
2022/06/21 21:35:16;;;;;;;12.85;7.90;;;;;;;;;;5091042;28;20039;-33
2022/06/21 21:38:19;;;;;;;15.05;8.02;;;;;;;;;;5089673;28;20078;-34
2022/06/21 21:41:22;;;;;;;13.18;7.22;;;;;;;;;;5090642;28;20101;-32
2022/06/21 21:44:06;;;;;;;15.45;7.70;;;;;;;;;;5090669;28;20410;-32
2022/06/21 21:46:54;;;;;;;16.00;8.85;;;;;;;;;;5089556;28;20735;-32
2022/06/21 21:49:40;;;;;;;11.68;7.70;;;;;;;;;;5090739;28;20051;-32
2022/06/21 21:52:28;;;;;;;12.15;7.65;;;;;;;;;;5090965;28;20043;-33
2022/06/21 21:55:17;;;;;;;14.43;8.15;;;;;;;;;;5088387;28;20074;-33
2022/06/21 21:58:03;;;;;;;15.48;9.23;;;;;;;;;;5090625;28;20555;-32
2022/06/21 22:00:58;;;;;;;13.55;7.82;;;;;;;;;;5090665;28;20047;-33
2022/06/21 22:03:48;;;;;;;14.25;9.18;;;;;;;;;;5088820;28;20050;-33
2022/06/21 22:06:51;;;;;;;13.55;7.40;;;;;;;;;;5090263;28;20525;-33
2022/06/21 22:09:42;;;;;;;15.75;8.35;;;;;;;;;;5089209;28;20475;-32
2022/06/21 22:12:42;;;;;;;12.18;8.23;;;;;;;;;;5088414;28;20041;-32
2022/06/21 22:15:44;;;;;;;11.40;7.03;;;;;;;;;;5089292;28;20467;-34
2022/06/21 22:18:34;;;;;;;15.50;8.93;;;;;;;;;;5090261;28;20062;-33
2022/06/21 22:21:22;;;;;;;9.75;7.03;;;;;;;;;;5090312;28;20055;-32
2022/06/21 22:24:08;;;;;;;11.13;6.80;;;;;;;;;;5088219;28;20100;-32
2022/06/21 22:26:53;;;;;;;11.43;6.72;;;;;;;;;;5089841;28;20541;-32
2022/06/21 22:29:42;;;;;;;13.40;8.02;;;;;;;;;;5089130;28;20085;-33
2022/06/21 22:32:27;;;;;;;10.70;7.30;;;;;;;;;;5089786;28;20043;-32
2022/06/21 22:35:14;;;;;;;15.30;8.30;;;;;;;;;;5090117;28;20105;-32
2022/06/21 22:38:00;;;;;;;11.68;7.25;;;;;;;;;;5087962;28;20513;-33
2022/06/21 22:40:45;;;;;;;10.23;7.03;;;;;;;;;;5089866;28;20081;-32
2022/06/21 22:43:38;;;;;;;11.00;6.68;;;;;;;;;;5088350;28;20050;-33
2022/06/21 22:46:25;;;;;;;11.77;6.05;;;;;;;;;;5089240;28;20059;-32
2022/06/21 22:49:14;;;;;;;12.15;6.25;;;;;;;;;;5089746;28;20151;-33
2022/06/21 22:51:59;;;;;;;14.52;6.40;;;;;;;;;;5087586;28;20039;-33
2022/06/21 22:54:45;;;;;;;11.10;6.70;;;;;;;;;;5089366;28;20046;-32
2022/06/21 22:57:31;;;;;;;10.63;6.30;;;;;;;;;;5089626;28;20047;-32
2022/06/21 23:00:17;;;;;;;12.57;6.80;;;;;;;;;;5089515;28;20096;-32
2022/06/21 23:03:09;;;;;;;8.90;5.78;;;;;;;;;;5089178;28;20060;-33
2022/06/21 23:05:55;;;;;;;11.82;6.47;;;;;;;;;;5087204;28;20410;-32
2022/06/21 23:08:41;;;;;;;17.77;6.47;;;;;;;;;;5089155;28;20411;-32
2022/06/21 23:11:27;;;;;;;12.82;5.80;;;;;;;;;;5089307;28;20051;-32
2022/06/21 23:14:12;;;;;;;10.45;6.20;;;;;;;;;;5089133;28;20058;-32
2022/06/21 23:16:58;;;;;;;8.77;5.72;;;;;;;;;;5089172;28;20066;-32
2022/06/21 23:19:42;;;;;;;12.35;6.45;;;;;;;;;;5086534;28;20134;-33
2022/06/21 23:22:26;;;;;;;11.30;5.97;;;;;;;;;;5089269;28;20440;-32
2022/06/21 23:25:18;;;;;;;11.05;5.50;;;;;;;;;;5086917;28;20545;-33
2022/06/21 23:28:03;;;;;;;8.48;5.70;;;;;;;;;;5089004;28;20051;-32
2022/06/21 23:30:48;;;;;;;11.63;5.43;;;;;;;;;;5089162;28;20092;-32
2022/06/21 23:33:33;;;;;;;11.27;5.20;;;;;;;;;;5087551;28;20482;-31
2022/06/21 23:36:19;;;;;;;10.80;6.15;;;;;;;;;;5088977;28;20128;-32
2022/06/21 23:39:04;;;;;;;9.13;5.57;;;;;;;;;;5086864;28;20047;-33
2022/06/21 23:41:48;;;;;;;10.07;4.80;;;;;;;;;;5088637;28;20089;-33
2022/06/21 23:44:35;;;;;;;10.57;5.93;;;;;;;;;;5088264;28;20043;-33
2022/06/21 23:47:25;;;;;;;8.82;5.35;;;;;;;;;;5088616;28;20472;-32
2022/06/21 23:50:29;;;;;;;10.90;5.60;;;;;;;;;;5087524;28;20046;-32
2022/06/21 23:53:20;;;;;;;12.38;5.55;;;;;;;;;;5088797;28;20031;-33
2022/06/21 23:56:04;;;;;;;10.23;5.32;;;;;;;;;;5086449;28;20131;-33
2022/06/21 23:58:48;;;;;;;8.00;5.40;;;;;;;;;;5088885;28;20047;-33
